HEMA

Marsa Alam International Airport

Marsa Alam, Egypt
METAR HEMA 092000Z 27007KT CAVOK 17/08 Q1018 NOSIG
Observed Flight Rules
Dec-9 @ 20:00 UTC (2 hours ago) Visual Flight Rules
Wind Visibility Clouds
270° at 7 knots 10,000+ meters
  • Clear skies
Temperatures Readings
Current 17°C / 63°F
Dewpoint 8°C / 46°F
Humidity 56%
Altimeter 30.06" Hg
Pressure 1018 hPa
Elevation 77
METAR HEMA 092000Z 27007KT CAVOK 17/08 Q1018 NOSIG
Observed Flight Rules
Dec-9 @ 20:00 UTC
(2 hours ago)
VFR
Wind Visibility
270° at 7 knots 10,000+ meters
Clouds
  • Clear skies
Temperature Dewpoint
17°C / 63°F 8°C / 46°F
Humidity Altimeter Pressure
56% 30.06" Hg 1018 hPa